Chattanooga (CHA/KCHA)

Map

Destinations

Information

Location
Chattanooga, TN
Local Time
01:34 / 1:34 am
GMT Time
06:34 / 6:34 am
Gates
Unassigned
No FAA reported delays
METAR KCHA 220612Z AUTO 03003KT 3SM -RA BR FEW007 BKN030 OVC039 14/13 A2994 RMK AO2 P0000 T01390128 $
TAF KCHA 220537Z 2206/2306 VRB03KT 3SM -RA BR SCT004 OVC030 TEMPO 2206/2209 1SM -RA BKN004 OVC030 FM220900 VRB03KT 1/2SM -DZ FG BKN003 FM221300 05004KT 3SM -SHRA BR OVC015 FM221800 07005KT P6SM OVC025 FM230000 00000KT P6SM OVC040
  • No charts available